Time;durP1;ratioP1;P1;durP2;ratioP2;P2;SDS_P1;SDS_P2;PMS_P1;PMS_P2;Temp;Humidity;BMP_temperature;BMP_pressure;BME280_temperature;BME280_humidity;BME280_pressure;Samples;Min_cycle;Max_cycle;Signal;HPM_P1;HPM_P2
2023/07/26 00:01:08;;;;;;;2.47;0.50;;;14.40;99.90;;;;;;4936406;28;20042;-74
2023/07/26 00:03:34;;;;;;;2.55;0.50;;;14.40;99.90;;;;;;4936624;28;20027;-74
2023/07/26 00:06:01;;;;;;;4.63;0.60;;;14.40;99.90;;;;;;4905237;28;20413;-74
2023/07/26 00:08:28;;;;;;;1.77;0.60;;;14.40;99.90;;;;;;4917970;28;20027;-74
2023/07/26 00:10:54;;;;;;;0.70;0.40;;;14.50;99.90;;;;;;4933496;28;20050;-74
2023/07/26 00:13:20;;;;;;;2.40;0.70;;;14.50;99.90;;;;;;4901861;28;20475;-74
2023/07/26 00:15:47;;;;;;;1.85;0.63;;;14.50;99.90;;;;;;4938142;28;20039;-74
2023/07/26 00:18:13;;;;;;;0.98;0.43;;;14.50;99.90;;;;;;4939100;28;20043;-74
2023/07/26 00:20:40;;;;;;;2.88;0.70;;;14.50;99.90;;;;;;4939009;28;20039;-74
2023/07/26 00:23:06;;;;;;;2.17;0.60;;;14.50;99.90;;;;;;4916435;28;20046;-74
2023/07/26 00:25:33;;;;;;;1.77;0.70;;;14.60;99.90;;;;;;4886950;28;20679;-74
2023/07/26 00:27:59;;;;;;;0.90;0.40;;;14.60;99.90;;;;;;4907438;28;20506;-74
2023/07/26 00:30:25;;;;;;;2.40;0.73;;;14.60;99.90;;;;;;4939579;28;20513;-74
2023/07/26 00:32:52;;;;;;;2.10;0.70;;;14.60;99.90;;;;;;4923281;28;20066;-73
2023/07/26 00:35:24;;;;;;;1.45;0.63;;;14.60;99.90;;;;;;4908931;28;20595;-74
2023/07/26 00:37:51;;;;;;;1.02;0.60;;;14.70;99.90;;;;;;4931576;28;20039;-74
2023/07/26 00:40:18;;;;;;;1.55;0.45;;;14.80;99.90;;;;;;4917343;28;20545;-74
2023/07/26 00:42:45;;;;;;;1.13;0.50;;;14.80;99.90;;;;;;4920627;28;20407;-74
2023/07/26 00:45:12;;;;;;;0.95;0.40;;;14.80;99.90;;;;;;4902971;28;20052;-74
2023/07/26 00:47:38;;;;;;;1.70;0.57;;;14.80;99.90;;;;;;4921324;28;20467;-74
2023/07/26 00:50:06;;;;;;;1.45;0.43;;;14.80;99.90;;;;;;4923050;28;20046;-74
2023/07/26 00:52:33;;;;;;;1.58;0.50;;;14.90;99.90;;;;;;4924226;28;20125;-74
2023/07/26 00:55:02;;;;;;;1.75;0.70;;;14.90;99.90;;;;;;4945395;28;20051;-74
2023/07/26 00:57:30;;;;;;;2.40;1.00;;;14.80;99.90;;;;;;4920704;28;20044;-74
2023/07/26 00:59:57;;;;;;;1.98;0.85;;;14.90;99.90;;;;;;4917798;28;20039;-74
2023/07/26 01:02:24;;;;;;;2.25;1.00;;;14.80;99.90;;;;;;4903773;28;20058;-74
2023/07/26 01:04:51;;;;;;;3.08;1.63;;;14.70;99.90;;;;;;4906928;28;20043;-74
2023/07/26 01:07:30;;;;;;;1.80;0.90;;;14.70;99.90;;;;;;4936439;28;20050;-74
2023/07/26 01:10:16;;;;;;;1.40;0.80;;;14.60;99.90;;;;;;4915887;28;20722;-74
2023/07/26 01:13:03;;;;;;;1.63;0.98;;;14.50;99.90;;;;;;4936036;28;20031;-74
2023/07/26 01:15:37;;;;;;;3.17;1.65;;;14.40;99.90;;;;;;4940632;28;20035;-74
2023/07/26 01:18:11;;;;;;;2.05;1.05;;;14.30;99.90;;;;;;4950951;28;20039;-74
2023/07/26 01:20:38;;;;;;;2.10;1.00;;;14.20;99.90;;;;;;4921733;28;20043;-74
2023/07/26 01:23:06;;;;;;;1.88;0.88;;;14.10;99.90;;;;;;4935428;28;20047;-74
2023/07/26 01:25:33;;;;;;;3.28;1.33;;;14.00;99.90;;;;;;4918752;28;20042;-74
2023/07/26 01:27:59;;;;;;;2.40;1.15;;;13.90;99.90;;;;;;4916372;28;20038;-74
2023/07/26 01:30:30;;;;;;;1.65;0.90;;;13.90;99.90;;;;;;4920266;28;20028;-74
2023/07/26 01:33:03;;;;;;;1.65;0.93;;;13.80;99.90;;;;;;4938247;28;20421;-74
2023/07/26 01:35:30;;;;;;;1.38;0.80;;;13.80;99.90;;;;;;4918483;28;20031;-74
2023/07/26 01:37:58;;;;;;;2.15;0.90;;;13.70;99.90;;;;;;4937397;28;20050;-74
2023/07/26 01:40:26;;;;;;;2.30;1.33;;;13.70;99.90;;;;;;4904279;28;20130;-74
2023/07/26 01:42:53;;;;;;;3.05;1.70;;;13.60;99.90;;;;;;4936854;28;20039;-74
2023/07/26 01:45:21;;;;;;;2.40;1.63;;;13.60;99.90;;;;;;4918888;28;20525;-74
2023/07/26 01:47:49;;;;;;;3.85;1.48;;;13.50;99.90;;;;;;4907414;28;20501;-74
2023/07/26 01:50:15;;;;;;;2.50;1.20;;;13.50;99.90;;;;;;4900253;28;20024;-74
2023/07/26 01:52:42;;;;;;;2.80;1.20;;;13.40;99.90;;;;;;4902447;28;20031;-74
2023/07/26 01:55:08;;;;;;;1.50;0.93;;;13.40;99.90;;;;;;4902934;28;20047;-74
2023/07/26 01:57:34;;;;;;;2.75;1.38;;;13.30;99.90;;;;;;4918962;28;20039;-74
2023/07/26 02:00:01;;;;;;;2.35;1.20;;;13.30;99.90;;;;;;4922421;28;20398;-74
2023/07/26 02:02:29;;;;;;;2.00;1.10;;;13.30;99.90;;;;;;4888905;28;20043;-74
2023/07/26 02:04:55;;;;;;;2.67;1.25;;;13.20;99.90;;;;;;4921249;28;20039;-74
2023/07/26 02:07:21;;;;;;;1.65;1.02;;;13.20;99.90;;;;;;4908044;28;20035;-73
2023/07/26 02:09:48;;;;;;;3.72;1.40;;;13.20;99.90;;;;;;4920612;28;20042;-74
2023/07/26 02:12:14;;;;;;;1.63;1.00;;;13.10;99.90;;;;;;4917158;28;20061;-74
2023/07/26 02:14:41;;;;;;;2.60;1.70;;;13.10;99.90;;;;;;4888292;28;20131;-73
2023/07/26 02:17:07;;;;;;;2.80;1.73;;;13.10;99.90;;;;;;4906287;28;20055;-74
2023/07/26 02:19:33;;;;;;;4.00;2.25;;;13.00;99.90;;;;;;4904234;28;20973;-74
2023/07/26 02:22:00;;;;;;;2.20;1.50;;;13.00;99.90;;;;;;4918795;28;20054;-74
2023/07/26 02:24:26;;;;;;;3.00;1.65;;;13.00;99.90;;;;;;4928771;28;20034;-74
2023/07/26 02:26:52;;;;;;;2.13;1.85;;;13.00;99.90;;;;;;4931791;28;20047;-73
2023/07/26 02:29:19;;;;;;;2.13;1.40;;;12.90;99.90;;;;;;4907758;28;20030;-72
2023/07/26 02:31:46;;;;;;;2.72;1.63;;;12.90;99.90;;;;;;4939905;28;20036;-73
2023/07/26 02:34:13;;;;;;;2.65;2.03;;;12.90;99.90;;;;;;4906357;28;20045;-73
2023/07/26 02:36:41;;;;;;;3.65;1.73;;;12.80;99.90;;;;;;4901309;28;20132;-73
2023/07/26 02:39:07;;;;;;;2.53;1.50;;;12.80;99.90;;;;;;4918550;28;20042;-73
2023/07/26 02:41:33;;;;;;;3.05;2.53;;;12.70;99.90;;;;;;4905428;28;20604;-73
2023/07/26 02:43:59;;;;;;;3.05;2.65;;;12.70;99.90;;;;;;4919631;28;20039;-73
2023/07/26 02:46:26;;;;;;;3.45;2.75;;;12.70;99.90;;;;;;4939480;28;20490;-73
2023/07/26 02:48:52;;;;;;;3.38;2.47;;;12.70;99.90;;;;;;4934579;28;20051;-73
2023/07/26 02:51:18;;;;;;;3.03;2.70;;;12.60;99.90;;;;;;4919299;28;21169;-72
2023/07/26 02:53:45;;;;;;;3.05;2.75;;;12.60;99.90;;;;;;4920335;28;20031;-73
2023/07/26 02:56:12;;;;;;;2.63;2.00;;;12.60;99.90;;;;;;4890455;28;20068;-73
2023/07/26 02:58:38;;;;;;;3.25;2.95;;;12.60;99.90;;;;;;4937257;28;20026;-73
2023/07/26 03:01:04;;;;;;;4.35;3.45;;;12.60;99.90;;;;;;4904836;28;20030;-72
2023/07/26 03:03:31;;;;;;;3.88;3.20;;;12.50;99.90;;;;;;4935740;28;20039;-73
2023/07/26 03:05:57;;;;;;;4.78;4.28;;;12.50;99.90;;;;;;4902957;28;20501;-73
2023/07/26 03:08:24;;;;;;;5.85;4.50;;;12.50;99.90;;;;;;4915318;28;20042;-73
2023/07/26 03:10:53;;;;;;;5.13;4.43;;;12.40;99.90;;;;;;4889164;28;20061;-73
2023/07/26 03:13:19;;;;;;;5.68;5.10;;;12.40;99.90;;;;;;4920371;28;20043;-73
2023/07/26 03:15:46;;;;;;;5.40;4.90;;;12.40;99.90;;;;;;4902780;28;20032;-73
2023/07/26 03:18:13;;;;;;;5.95;5.43;;;12.40;99.90;;;;;;4929810;28;20046;-73
2023/07/26 03:20:45;;;;;;;7.40;6.15;;;12.40;99.90;;;;;;4904740;28;20463;-73
2023/07/26 03:23:15;;;;;;;5.70;5.03;;;12.40;99.90;;;;;;4918079;28;20035;-73
2023/07/26 03:25:42;;;;;;;6.55;5.95;;;12.40;99.90;;;;;;4917813;28;20665;-73
2023/07/26 03:28:09;;;;;;;7.30;6.60;;;12.40;99.90;;;;;;4920968;28;20046;-73
2023/07/26 03:30:35;;;;;;;6.72;5.82;;;12.30;99.90;;;;;;4906159;28;20042;-73
2023/07/26 03:33:01;;;;;;;6.68;6.07;;;12.30;99.90;;;;;;4917833;28;20028;-73
2023/07/26 03:35:27;;;;;;;7.72;6.93;;;12.30;99.90;;;;;;4919814;28;20043;-73
2023/07/26 03:37:54;;;;;;;7.85;7.05;;;12.30;99.90;;;;;;4933807;28;20031;-73
2023/07/26 03:40:21;;;;;;;7.25;6.55;;;12.30;99.90;;;;;;4934542;28;20039;-73
2023/07/26 03:42:47;;;;;;;7.35;6.60;;;12.30;99.90;;;;;;4915458;28;20035;-73
2023/07/26 03:45:13;;;;;;;6.65;5.78;;;12.30;99.90;;;;;;4890796;28;20636;-72
2023/07/26 03:47:40;;;;;;;6.72;6.13;;;12.20;99.90;;;;;;4918791;28;20035;-73
2023/07/26 03:50:06;;;;;;;6.55;5.13;;;12.20;99.90;;;;;;4898687;28;20043;-74
2023/07/26 03:52:32;;;;;;;4.80;4.30;;;12.20;99.90;;;;;;4915645;28;20032;-73
2023/07/26 03:54:59;;;;;;;6.55;5.57;;;12.20;99.90;;;;;;4953173;28;20026;-73
2023/07/26 03:57:26;;;;;;;6.90;6.30;;;12.10;99.90;;;;;;4956557;28;20498;-73
2023/07/26 03:59:52;;;;;;;6.38;5.78;;;12.10;99.90;;;;;;4923463;28;20035;-73
2023/07/26 04:02:20;;;;;;;5.22;4.82;;;12.10;99.90;;;;;;4953885;28;20386;-73
2023/07/26 04:04:47;;;;;;;6.40;5.80;;;12.10;99.90;;;;;;4952946;28;20035;-73
2023/07/26 04:07:13;;;;;;;6.50;5.30;;;12.10;99.90;;;;;;4955036;28;20049;-72
2023/07/26 04:09:40;;;;;;;8.15;6.40;;;12.10;99.90;;;;;;4937721;28;20039;-73
2023/07/26 04:12:06;;;;;;;5.40;4.93;;;12.10;99.90;;;;;;4958394;28;20035;-72
2023/07/26 04:14:33;;;;;;;6.25;5.68;;;12.10;99.90;;;;;;4951967;28;20035;-73
2023/07/26 04:16:59;;;;;;;4.78;4.38;;;12.10;99.90;;;;;;4918889;28;20605;-72
2023/07/26 04:19:26;;;;;;;5.53;4.90;;;12.20;99.90;;;;;;4947402;28;20502;-73
2023/07/26 04:21:52;;;;;;;5.43;4.68;;;12.20;99.90;;;;;;4939085;28;20807;-73
2023/07/26 04:24:18;;;;;;;5.55;5.05;;;12.30;99.90;;;;;;4954324;28;20022;-72
2023/07/26 04:26:45;;;;;;;4.70;4.30;;;12.30;99.90;;;;;;4956556;28;20034;-73
2023/07/26 04:29:11;;;;;;;5.07;4.57;;;12.40;99.90;;;;;;4938463;28;20046;-73
2023/07/26 04:31:37;;;;;;;5.60;5.10;;;12.50;99.90;;;;;;4937359;28;20030;-73
2023/07/26 04:34:04;;;;;;;8.02;6.20;;;12.60;99.90;;;;;;4938074;28;20413;-73
2023/07/26 04:36:30;;;;;;;6.55;5.80;;;12.80;99.90;;;;;;4953392;28;20039;-73
2023/07/26 04:38:56;;;;;;;7.13;6.43;;;12.90;99.90;;;;;;4935458;28;20038;-73
2023/07/26 04:41:23;;;;;;;6.10;5.50;;;13.00;99.90;;;;;;4937975;28;20042;-73
2023/07/26 04:43:49;;;;;;;6.20;5.35;;;13.10;99.90;;;;;;4938541;28;20070;-73
2023/07/26 04:46:16;;;;;;;7.57;5.72;;;13.10;99.90;;;;;;4951591;28;20414;-73
2023/07/26 04:48:43;;;;;;;7.03;4.68;;;13.20;99.90;;;;;;4918382;28;20043;-73
2023/07/26 04:51:11;;;;;;;6.28;5.68;;;13.20;99.90;;;;;;4921511;28;20043;-73
2023/07/26 04:53:37;;;;;;;6.07;5.47;;;13.30;99.90;;;;;;4937733;28;20031;-73
2023/07/26 04:56:03;;;;;;;6.55;5.25;;;13.30;99.90;;;;;;4936649;28;20038;-73
2023/07/26 04:58:30;;;;;;;6.50;5.90;;;13.30;99.90;;;;;;4961233;28;20043;-73
2023/07/26 05:00:57;;;;;;;6.03;5.40;;;13.30;99.90;;;;;;4938076;28;20038;-73
2023/07/26 05:03:24;;;;;;;5.10;4.60;;;13.40;99.90;;;;;;4939140;28;20035;-73
2023/07/26 05:05:51;;;;;;;4.65;4.18;;;13.50;99.90;;;;;;4956203;28;20030;-73
2023/07/26 05:08:18;;;;;;;4.75;4.30;;;13.60;99.90;;;;;;4965636;28;20042;-73
2023/07/26 05:10:50;;;;;;;5.40;4.90;;;13.60;99.90;;;;;;4939662;28;20401;-73
2023/07/26 05:13:17;;;;;;;6.68;5.40;;;13.70;99.90;;;;;;4949354;28;20432;-73
2023/07/26 05:15:43;;;;;;;5.43;4.57;;;13.90;99.90;;;;;;4938367;28;20047;-73
2023/07/26 05:18:10;;;;;;;4.50;4.10;;;14.00;99.90;;;;;;4937051;28;20069;-73
2023/07/26 05:20:37;;;;;;;4.13;3.83;;;14.20;99.90;;;;;;4940777;28;20031;-74
2023/07/26 05:23:03;;;;;;;4.57;4.18;;;14.40;99.90;;;;;;4959350;28;20035;-74
2023/07/26 05:25:29;;;;;;;5.97;4.80;;;14.60;99.90;;;;;;4922543;28;20034;-74
2023/07/26 05:27:55;;;;;;;4.72;4.22;;;14.70;99.90;;;;;;4956383;28;21408;-75
2023/07/26 05:30:22;;;;;;;4.93;4.40;;;15.00;99.90;;;;;;4935635;28;20042;-75
2023/07/26 05:32:48;;;;;;;4.20;3.63;;;15.10;99.90;;;;;;4952687;28;20050;-74
2023/07/26 05:35:15;;;;;;;4.25;2.90;;;15.30;99.90;;;;;;4948340;28;20047;-74
2023/07/26 05:37:41;;;;;;;3.60;3.30;;;15.40;99.90;;;;;;4936047;28;20540;-73
2023/07/26 05:40:08;;;;;;;3.83;3.25;;;15.40;99.90;;;;;;4959303;28;20034;-73
2023/07/26 05:42:35;;;;;;;4.20;3.30;;;15.40;99.90;;;;;;4926565;28;20383;-74
2023/07/26 05:45:01;;;;;;;3.53;2.75;;;15.40;99.90;;;;;;4939245;28;20035;-74
2023/07/26 05:47:30;;;;;;;6.00;4.00;;;15.30;99.90;;;;;;4934139;28;20046;-74
2023/07/26 05:49:56;;;;;;;3.55;3.08;;;15.20;99.90;;;;;;4921570;28;20074;-74
2023/07/26 05:52:23;;;;;;;4.13;3.67;;;15.20;99.90;;;;;;4940162;28;20031;-74
2023/07/26 05:54:49;;;;;;;2.78;2.13;;;15.10;99.90;;;;;;4953923;28;20038;-74
2023/07/26 05:57:15;;;;;;;3.75;3.15;;;15.10;99.90;;;;;;4937087;28;21009;-74
2023/07/26 05:59:42;;;;;;;6.20;3.28;;;15.00;99.90;;;;;;4957110;28;20046;-73
2023/07/26 06:02:08;;;;;;;4.95;3.20;;;15.00;99.90;;;;;;4938007;28;20037;-73
2023/07/26 06:04:34;;;;;;;3.90;3.35;;;15.00;99.90;;;;;;4924223;28;20034;-73
2023/07/26 06:07:01;;;;;;;4.82;3.65;;;15.00;99.90;;;;;;4938835;28;20038;-73
2023/07/26 06:09:28;;;;;;;3.45;3.00;;;15.10;99.90;;;;;;4940453;28;20042;-74
2023/07/26 06:11:54;;;;;;;5.32;4.18;;;15.20;99.90;;;;;;4939897;28;20033;-74
2023/07/26 06:14:21;;;;;;;5.18;3.83;;;15.40;99.90;;;;;;4922714;28;20062;-74
2023/07/26 06:16:47;;;;;;;5.78;4.03;;;15.50;99.90;;;;;;4924641;28;20641;-74
2023/07/26 06:19:14;;;;;;;4.65;3.90;;;15.80;99.90;;;;;;4938917;28;20047;-74
2023/07/26 06:21:40;;;;;;;4.32;3.92;;;16.00;99.90;;;;;;4924302;28;20407;-74
2023/07/26 06:24:07;;;;;;;3.92;3.53;;;16.30;99.90;;;;;;4956900;28;20030;-74
2023/07/26 06:26:33;;;;;;;7.20;4.25;;;16.50;99.90;;;;;;4924329;28;20054;-75
2023/07/26 06:29:00;;;;;;;4.18;3.42;;;16.70;99.90;;;;;;4965215;28;20034;-75
2023/07/26 06:31:26;;;;;;;3.88;3.30;;;16.90;99.90;;;;;;4938903;28;20035;-75
2023/07/26 06:33:52;;;;;;;5.30;4.07;;;17.20;99.90;;;;;;4939461;28;20033;-75
2023/07/26 06:36:19;;;;;;;5.25;4.75;;;17.40;99.90;;;;;;4956052;28;20045;-75
2023/07/26 06:38:45;;;;;;;5.07;4.22;;;17.50;99.90;;;;;;4940327;28;20038;-74
2023/07/26 06:41:12;;;;;;;7.70;5.05;;;17.50;99.90;;;;;;4921940;28;20031;-74
2023/07/26 06:43:38;;;;;;;5.28;3.45;;;17.50;99.90;;;;;;4920703;28;20046;-74
2023/07/26 06:46:04;;;;;;;4.78;3.78;;;17.50;99.90;;;;;;4920766;28;20379;-74
2023/07/26 06:48:30;;;;;;;6.13;4.28;;;17.60;99.90;;;;;;4934916;28;20046;-74
2023/07/26 06:50:57;;;;;;;4.72;3.65;;;17.60;99.90;;;;;;4935051;28;20031;-74
2023/07/26 06:53:23;;;;;;;3.83;3.40;;;17.60;99.90;;;;;;4940020;28;20033;-74
2023/07/26 06:55:50;;;;;;;3.92;2.95;;;17.60;99.90;;;;;;4933863;28;20452;-72
2023/07/26 06:58:16;;;;;;;5.97;4.20;;;17.60;99.90;;;;;;4934984;28;20046;-73
2023/07/26 07:00:43;;;;;;;6.63;4.90;;;17.50;99.90;;;;;;4935923;28;20401;-74
2023/07/26 07:03:09;;;;;;;7.65;5.47;;;17.50;99.90;;;;;;4945209;28;20042;-73
2023/07/26 07:05:35;;;;;;;5.18;4.10;;;17.40;99.90;;;;;;4953437;28;20047;-73
2023/07/26 07:08:02;;;;;;;9.70;6.82;;;17.40;99.90;;;;;;4934307;28;20493;-74
2023/07/26 07:10:28;;;;;;;7.82;6.57;;;17.30;99.90;;;;;;4924385;28;20046;-74
2023/07/26 07:12:54;;;;;;;4.85;4.45;;;17.30;99.90;;;;;;4948465;28;20046;-73
2023/07/26 07:15:21;;;;;;;8.27;5.35;;;17.30;99.90;;;;;;4938404;28;20049;-73
2023/07/26 07:17:47;;;;;;;7.18;6.32;;;17.40;99.90;;;;;;4939592;28;22892;-73
2023/07/26 07:20:14;;;;;;;7.40;5.55;;;17.30;99.90;;;;;;4924558;28;20409;-73
2023/07/26 07:22:41;;;;;;;5.07;4.47;;;17.30;99.90;;;;;;4924282;28;20034;-73
2023/07/26 07:25:07;;;;;;;6.60;5.60;;;17.20;99.90;;;;;;4941976;28;20038;-72
2023/07/26 07:27:34;;;;;;;7.07;5.45;;;17.00;99.90;;;;;;4936551;28;20939;-72
2023/07/26 07:30:01;;;;;;;8.18;6.43;;;16.90;99.90;;;;;;4949769;28;20035;-73
2023/07/26 07:32:27;;;;;;;9.13;6.25;;;16.80;99.90;;;;;;4921089;28;20046;-72
2023/07/26 07:34:53;;;;;;;8.02;5.60;;;16.60;99.90;;;;;;4940330;28;20046;-72
2023/07/26 07:37:20;;;;;;;9.35;7.30;;;16.40;99.90;;;;;;4925267;28;20030;-76
2023/07/26 07:39:46;;;;;;;7.57;6.80;;;16.20;99.90;;;;;;4939131;28;20046;-70
2023/07/26 07:42:13;;;;;;;9.52;4.55;;;15.90;99.90;;;;;;4921951;28;20041;-71
2023/07/26 07:44:39;;;;;;;6.97;5.03;;;15.60;99.90;;;;;;4920426;28;20031;-71
2023/07/26 07:47:05;;;;;;;10.05;4.03;;;15.20;99.90;;;;;;4936891;28;20054;-71
2023/07/26 07:49:32;;;;;;;7.18;3.28;;;14.90;99.90;;;;;;4934484;28;21522;-71
2023/07/26 07:51:58;;;;;;;4.07;2.63;;;14.70;99.90;;;;;;4937419;28;20027;-71
2023/07/26 07:54:24;;;;;;;2.33;1.73;;;14.50;99.90;;;;;;4934339;28;20038;-71
2023/07/26 07:56:50;;;;;;;3.88;2.40;;;14.40;99.90;;;;;;4954266;28;20474;-71
2023/07/26 07:59:17;;;;;;;4.18;2.58;;;14.30;99.90;;;;;;4936542;28;20035;-71
2023/07/26 08:01:44;;;;;;;4.93;3.13;;;14.20;99.90;;;;;;4955263;28;20030;-71
2023/07/26 08:04:10;;;;;;;3.30;2.10;;;14.20;99.90;;;;;;4921680;28;20050;-71
2023/07/26 08:06:36;;;;;;;3.30;2.10;;;14.10;99.90;;;;;;4938766;28;20038;-71
2023/07/26 08:09:03;;;;;;;3.03;1.40;;;14.10;99.90;;;;;;4952919;28;21371;-71
2023/07/26 08:11:29;;;;;;;2.55;1.33;;;14.10;99.90;;;;;;4921313;28;20054;-71
2023/07/26 08:13:55;;;;;;;1.80;1.30;;;14.10;99.90;;;;;;4951531;28;20062;-71
2023/07/26 08:16:22;;;;;;;1.70;1.00;;;14.10;99.90;;;;;;4964730;28;20055;-71
2023/07/26 08:18:48;;;;;;;2.25;1.30;;;14.10;99.90;;;;;;4952780;28;20046;-71
2023/07/26 08:21:14;;;;;;;2.15;1.00;;;14.20;99.90;;;;;;4922370;28;20668;-71
2023/07/26 08:23:41;;;;;;;2.50;1.30;;;14.40;99.90;;;;;;4950304;28;20031;-71
2023/07/26 08:26:07;;;;;;;2.25;1.38;;;14.70;99.90;;;;;;4953885;28;20034;-71
2023/07/26 08:28:34;;;;;;;2.58;1.50;;;14.90;99.90;;;;;;4923500;28;20039;-70
2023/07/26 08:31:01;;;;;;;2.05;1.00;;;15.10;99.90;;;;;;4938023;28;20062;-79
2023/07/26 08:33:27;;;;;;;1.67;0.82;;;15.40;99.90;;;;;;4907587;28;20390;-71
2023/07/26 08:35:55;;;;;;;1.25;0.70;;;15.60;99.90;;;;;;4947441;28;20042;-71
2023/07/26 08:38:22;;;;;;;2.22;1.00;;;15.80;99.90;;;;;;4938435;28;20039;-71
2023/07/26 08:40:50;;;;;;;5.80;0.82;;;16.00;99.90;;;;;;4940493;28;20370;-71
2023/07/26 08:43:18;;;;;;;1.90;0.70;;;16.20;99.90;;;;;;4955316;28;20042;-71
2023/07/26 08:45:45;;;;;;;1.55;0.95;;;16.40;99.90;;;;;;4957972;28;20042;-71
2023/07/26 08:48:12;;;;;;;1.42;0.85;;;16.60;99.90;;;;;;4956820;28;20042;-72
2023/07/26 08:50:40;;;;;;;2.33;1.25;;;16.60;99.90;;;;;;4938438;28;20042;-72
2023/07/26 08:53:07;;;;;;;1.60;0.80;;;16.70;99.90;;;;;;4970854;28;20038;-71
2023/07/26 08:55:34;;;;;;;2.05;0.95;;;16.80;99.90;;;;;;4926222;28;20038;-72
2023/07/26 08:58:02;;;;;;;1.75;0.80;;;16.90;99.90;;;;;;4941628;28;20441;-73
2023/07/26 09:00:30;;;;;;;1.50;0.80;;;17.10;99.90;;;;;;4938970;28;20038;-73
2023/07/26 09:02:58;;;;;;;1.75;0.85;;;17.20;99.90;;;;;;4957421;28;20046;-72
2023/07/26 09:05:25;;;;;;;1.88;0.95;;;17.30;99.90;;;;;;4957607;28;20027;-71
2023/07/26 09:07:52;;;;;;;1.75;1.00;;;17.50;99.90;;;;;;4940582;28;20046;-73
2023/07/26 09:10:27;;;;;;;1.55;1.13;;;17.70;99.90;;;;;;4936636;28;20043;-74
2023/07/26 09:13:10;;;;;;;2.40;1.35;;;17.90;99.90;;;;;;4957480;28;23132;-73
2023/07/26 09:15:37;;;;;;;2.92;1.90;;;18.00;99.90;;;;;;4960518;28;20486;-73
2023/07/26 09:18:06;;;;;;;3.55;2.30;;;18.10;99.90;;;;;;4927651;28;20042;-73
2023/07/26 09:20:34;;;;;;;3.58;2.63;;;18.20;99.90;;;;;;4912595;28;20047;-72
2023/07/26 09:23:04;;;;;;;3.42;2.05;;;18.30;99.90;;;;;;4937594;28;20421;-72
2023/07/26 09:25:33;;;;;;;3.13;2.10;;;18.40;99.90;;;;;;4937692;28;20043;-72
2023/07/26 09:28:00;;;;;;;2.20;1.90;;;18.40;99.90;;;;;;4938486;28;20047;-73
2023/07/26 09:30:28;;;;;;;2.58;2.38;;;18.50;99.90;;;;;;4907194;28;20043;-73
2023/07/26 09:32:56;;;;;;;3.08;2.28;;;18.70;99.90;;;;;;4953752;28;20378;-74
2023/07/26 09:35:22;;;;;;;3.55;2.55;;;18.80;99.90;;;;;;4951626;28;20054;-73
2023/07/26 09:37:49;;;;;;;2.83;2.13;;;18.90;99.90;;;;;;4954414;28;20741;-73
2023/07/26 09:40:16;;;;;;;3.65;2.50;;;19.10;99.90;;;;;;4939477;28;20039;-73
2023/07/26 09:42:46;;;;;;;4.15;3.22;;;19.20;99.90;;;;;;4938769;28;20118;-73
2023/07/26 09:45:15;;;;;;;3.85;2.22;;;19.30;99.90;;;;;;4959064;28;20038;-73
2023/07/26 09:47:41;;;;;;;4.80;3.08;;;19.30;99.90;;;;;;4950729;28;20038;-74
2023/07/26 09:50:25;;;;;;;4.90;3.13;;;19.40;99.90;;;;;;4938693;28;20031;-73
2023/07/26 09:52:56;;;;;;;6.65;5.10;;;19.60;99.90;;;;;;4938931;28;20038;-74
2023/07/26 09:55:27;;;;;;;6.55;4.72;;;19.80;99.90;;;;;;4938653;28;20035;-74
2023/07/26 09:57:55;;;;;;;5.80;4.20;;;20.20;99.90;;;;;;4941533;28;20034;-74
2023/07/26 10:00:28;;;;;;;4.30;3.90;;;20.50;99.90;;;;;;4958201;28;20046;-74
2023/07/26 10:03:01;;;;;;;4.97;3.70;;;20.70;99.90;;;;;;4926426;28;20046;-75
2023/07/26 10:05:33;;;;;;;6.82;4.22;;;20.80;99.90;;;;;;4925542;28;20043;-74
2023/07/26 10:08:00;;;;;;;7.13;3.85;;;20.80;99.90;;;;;;4940802;28;20145;-75
2023/07/26 10:10:27;;;;;;;4.28;3.22;;;20.90;99.90;;;;;;4954362;28;20058;-74
2023/07/26 10:12:57;;;;;;;4.88;3.13;;;20.90;99.90;;;;;;4954308;28;20034;-73
2023/07/26 10:15:26;;;;;;;6.47;3.97;;;20.80;99.90;;;;;;4948190;28;20402;-74
2023/07/26 10:17:53;;;;;;;4.45;2.55;;;21.10;99.90;;;;;;4936114;28;20038;-74
2023/07/26 10:20:21;;;;;;;3.33;2.60;;;21.30;99.90;;;;;;4938079;28;20042;-74
2023/07/26 10:22:48;;;;;;;3.80;2.58;;;21.30;99.90;;;;;;4953372;28;20042;-74
2023/07/26 10:25:14;;;;;;;5.22;2.80;;;21.10;99.90;;;;;;4939632;28;20051;-73
2023/07/26 10:27:43;;;;;;;6.15;3.40;;;21.00;99.90;;;;;;4935230;28;20043;-73
2023/07/26 10:30:10;;;;;;;4.25;3.03;;;20.80;99.90;;;;;;4923947;28;20375;-73
2023/07/26 10:32:47;;;;;;;3.78;3.08;;;20.50;99.90;;;;;;4951754;28;20046;-72
2023/07/26 10:35:34;;;;;;;5.55;2.95;;;19.90;99.90;;;;;;4956277;28;20887;-72
2023/07/26 10:38:03;;;;;;;3.95;2.95;;;19.40;99.90;;;;;;4951565;28;20385;-72
2023/07/26 10:40:38;;;;;;;3.03;2.15;;;18.80;99.90;;;;;;4935871;28;20416;-72
2023/07/26 10:43:38;;;;;;;5.78;3.47;;;18.40;99.90;;;;;;4956775;28;20045;-73
2023/07/26 10:46:10;;;;;;;4.95;3.17;;;18.00;99.90;;;;;;4949053;28;20039;-72
2023/07/26 10:48:38;;;;;;;5.82;3.10;;;17.80;99.90;;;;;;4938717;28;20035;-72
2023/07/26 10:51:34;;;;;;;4.25;2.35;;;17.60;99.90;;;;;;4920460;28;20042;-71
2023/07/26 10:54:04;;;;;;;4.18;2.70;;;17.60;99.90;;;;;;4939403;28;20030;-71
2023/07/26 10:56:32;;;;;;;3.83;1.98;;;17.70;99.90;;;;;;4946578;28;20050;-72
2023/07/26 10:59:04;;;;;;;4.20;2.25;;;17.90;99.90;;;;;;4934716;28;20042;-71
2023/07/26 11:01:37;;;;;;;;;;;18.40;99.90;;;;;;4939370;28;20043;-71
2023/07/26 11:04:19;;;;;;;3.78;2.55;;;18.90;99.90;;;;;;4936063;28;20453;-71
2023/07/26 11:06:56;;;;;;;;;;;19.40;99.90;;;;;;4922373;28;20692;-71
2023/07/26 11:09:30;;;;;;;3.85;2.30;;;20.00;99.90;;;;;;4951775;28;19914;-71
2023/07/26 11:11:58;;;;;;;4.68;2.30;;;20.70;99.90;;;;;;4934400;28;20497;-72
2023/07/26 11:14:27;;;;;;;2.60;1.67;;;21.20;99.90;;;;;;4922969;28;20050;-72
2023/07/26 11:16:53;;;;;;;3.35;2.10;;;21.90;99.90;;;;;;4954081;28;20031;-72
2023/07/26 11:19:20;;;;;;;5.22;3.30;;;22.70;99.90;;;;;;4952840;28;20050;-72
2023/07/26 11:21:46;;;;;;;3.90;2.60;;;23.40;99.90;;;;;;4954159;28;20042;-72
2023/07/26 11:24:13;;;;;;;4.65;2.33;;;23.70;99.90;;;;;;4921150;28;20057;-72
2023/07/26 11:26:45;;;;;;;4.05;1.98;;;23.90;99.90;;;;;;4936593;28;20050;-72
2023/07/26 11:29:12;;;;;;;3.28;2.33;;;23.80;99.90;;;;;;4950575;28;20046;-72
2023/07/26 11:31:39;;;;;;;3.17;2.35;;;23.60;99.90;;;;;;4954413;28;20030;-72
2023/07/26 11:34:18;;;;;;;4.00;1.67;;;23.50;99.90;;;;;;4935778;28;20054;-72
2023/07/26 11:36:45;;;;;;;4.18;2.47;;;23.90;99.90;;;;;;4951677;28;20382;-73
2023/07/26 11:39:21;;;;;;;2.85;1.70;;;24.50;99.90;;;;;;4937456;28;20050;-73
2023/07/26 11:41:49;;;;;;;3.42;1.63;;;25.40;99.90;;;;;;4921797;28;20038;-73
2023/07/26 11:44:16;;;;;;;3.50;1.65;;;26.00;99.90;;;;;;4955677;28;20061;-73
2023/07/26 11:46:43;;;;;;;4.03;1.73;;;25.60;99.90;;;;;;4938745;28;20405;-73
2023/07/26 11:49:17;;;;;;;3.25;1.90;;;24.90;99.90;;;;;;4949684;28;20045;-73
2023/07/26 11:51:44;;;;;;;4.82;2.30;;;24.20;99.90;;;;;;4919280;28;20047;-73
2023/07/26 11:54:10;;;;;;;6.97;2.75;;;24.30;99.90;;;;;;4945666;28;20039;-73
2023/07/26 11:56:37;;;;;;;3.42;1.80;;;24.70;99.90;;;;;;4936497;28;20437;-73
2023/07/26 11:59:04;;;;;;;1.95;1.17;;;25.30;99.90;;;;;;4954078;28;20435;-73
2023/07/26 12:01:33;;;;;;;4.53;1.50;;;25.90;99.90;;;;;;4954446;28;20047;-73
2023/07/26 12:04:00;;;;;;;2.53;1.30;;;26.70;99.90;;;;;;4955250;28;20038;-73
2023/07/26 12:06:31;;;;;;;2.83;1.13;;;27.30;99.90;;;;;;4938879;28;20031;-73
2023/07/26 12:09:10;;;;;;;2.92;1.20;;;27.80;99.90;;;;;;4950168;28;20027;-73
2023/07/26 12:11:42;;;;;;;3.00;1.48;;;27.40;99.90;;;;;;4937481;28;20031;-73
2023/07/26 12:14:15;;;;;;;2.00;1.10;;;26.50;99.30;;;;;;4925402;28;20051;-73
2023/07/26 12:16:48;;;;;;;1.92;0.90;;;25.60;99.60;;;;;;4957117;28;20046;-73
2023/07/26 12:19:14;;;;;;;2.75;1.23;;;24.70;99.90;;;;;;4955239;28;20058;-73
2023/07/26 12:21:46;;;;;;;2.05;1.00;;;24.10;99.90;;;;;;4939087;28;20030;-73
2023/07/26 12:24:12;;;;;;;1.75;0.90;;;23.70;99.90;;;;;;4925094;28;20042;-73
2023/07/26 12:26:41;;;;;;;2.72;0.90;;;23.40;99.90;;;;;;4926008;28;20730;-73
2023/07/26 12:29:07;;;;;;;3.78;1.10;;;23.30;99.90;;;;;;4941404;28;20101;-74
2023/07/26 12:31:36;;;;;;;1.92;0.90;;;23.20;99.90;;;;;;4927591;28;20053;-74
2023/07/26 12:34:10;;;;;;;1.55;0.90;;;23.30;99.90;;;;;;4939084;28;20252;-74
2023/07/26 12:36:36;;;;;;;2.22;0.90;;;23.60;99.90;;;;;;4955557;28;20385;-74
2023/07/26 12:39:07;;;;;;;3.03;0.93;;;24.30;99.90;;;;;;4925084;28;20050;-74
2023/07/26 12:41:38;;;;;;;2.10;1.10;;;25.60;99.90;;;;;;4956212;28;20035;-74
2023/07/26 12:44:06;;;;;;;3.03;0.93;;;26.90;99.50;;;;;;4926760;28;20034;-74
2023/07/26 12:46:39;;;;;;;1.38;0.90;;;27.80;99.00;;;;;;4956273;28;20050;-74
2023/07/26 12:49:08;;;;;;;1.90;0.80;;;28.90;97.70;;;;;;4941651;28;20035;-75
2023/07/26 12:51:34;;;;;;;1.48;0.90;;;29.70;95.40;;;;;;4921137;28;20099;-75